Time;durP1;ratioP1;P1;durP2;ratioP2;P2;SDS_P1;SDS_P2;PMS_P1;PMS_P2;Temp;Humidity;BMP_temperature;BMP_pressure;BME280_temperature;BME280_humidity;BME280_pressure;Samples;Min_cycle;Max_cycle;Signal;HPM_P1;HPM_P2
2022/08/23 00:01:52;;;;;;;10.88;4.57;;;19.80;99.90;;;;;;5027608;28;20443;-73
2022/08/23 00:04:22;;;;;;;12.23;4.60;;;19.80;99.90;;;;;;5031937;28;20068;-73
2022/08/23 00:06:49;;;;;;;12.32;5.20;;;19.70;99.90;;;;;;5031652;28;20553;-74
2022/08/23 00:09:17;;;;;;;10.68;4.80;;;20.20;99.90;;;;;;5018653;28;20112;-73
2022/08/23 00:11:50;;;;;;;11.88;4.63;;;19.70;99.90;;;;;;5013101;28;20518;-73
2022/08/23 00:14:26;;;;;;;13.30;4.97;;;19.70;99.90;;;;;;5019362;28;20359;-73
2022/08/23 00:16:52;;;;;;;10.30;4.40;;;19.60;99.90;;;;;;5030301;28;20128;-73
2022/08/23 00:19:19;;;;;;;12.27;4.65;;;19.60;99.90;;;;;;5032016;28;20037;-73
2022/08/23 00:21:46;;;;;;;13.23;5.07;;;19.60;99.90;;;;;;5032064;28;20046;-73
2022/08/23 00:24:13;;;;;;;11.45;4.40;;;19.60;99.90;;;;;;5031930;28;20116;-73
2022/08/23 00:26:59;;;;;;;10.07;4.20;;;19.50;99.90;;;;;;5030394;28;20131;-73
2022/08/23 00:29:31;;;;;;;10.50;4.50;;;19.60;99.90;;;;;;5035565;28;20042;-74
2022/08/23 00:31:58;;;;;;;12.95;5.03;;;19.50;99.90;;;;;;5035595;28;20108;-74
2022/08/23 00:34:23;;;;;;;10.48;4.40;;;19.50;99.90;;;;;;5017800;28;20045;-73
2022/08/23 00:36:49;;;;;;;11.30;4.82;;;19.70;99.90;;;;;;5035269;28;20055;-74
2022/08/23 00:39:16;;;;;;;8.70;4.55;;;19.50;99.90;;;;;;5036085;28;20402;-74
2022/08/23 00:41:44;;;;;;;12.02;5.10;;;19.40;99.90;;;;;;5034972;28;20044;-73
2022/08/23 00:47:38;;;;;;;11.98;5.90;;;19.40;99.90;;;;;;5035097;28;20053;-74
2022/08/23 00:49:59;;;;;;;10.00;5.07;;;19.40;99.90;;;;;;5032734;28;20060;-74
2022/08/23 00:52:38;;;;;;;11.98;5.43;;;19.40;99.90;;;;;;5034796;28;20077;-73
2022/08/23 00:55:05;;;;;;;13.80;5.07;;;19.50;99.90;;;;;;5035351;28;20091;-73
2022/08/23 00:57:32;;;;;;;14.38;6.43;;;19.30;99.90;;;;;;5029892;28;20077;-74
2022/08/23 00:59:58;;;;;;;10.80;5.63;;;19.30;99.90;;;;;;5033880;28;20390;-73
2022/08/23 01:02:25;;;;;;;11.20;5.50;;;19.30;99.90;;;;;;5032665;28;20050;-74
2022/08/23 01:04:57;;;;;;;10.07;5.20;;;19.30;99.90;;;;;;5033078;28;20053;-73
2022/08/23 01:07:35;;;;;;;14.95;6.00;;;19.30;99.90;;;;;;5034792;28;20053;-74
2022/08/23 01:10:08;;;;;;;11.32;5.32;;;19.30;99.90;;;;;;5034757;28;20052;-73
2022/08/23 01:12:47;;;;;;;10.80;5.30;;;19.30;99.90;;;;;;5035119;28;20075;-73
2022/08/23 01:15:23;;;;;;;11.63;5.80;;;19.30;99.90;;;;;;5034825;28;20179;-74
2022/08/23 01:18:09;;;;;;;11.77;5.88;;;19.50;99.90;;;;;;5034136;28;20509;-73
2022/08/23 01:21:05;;;;;;;9.52;5.00;;;19.30;99.90;;;;;;5033673;28;20053;-73
2022/08/23 01:23:50;;;;;;;11.80;5.85;;;19.20;99.90;;;;;;5026108;28;20057;-73
2022/08/23 01:26:18;;;;;;;13.23;5.80;;;19.20;99.90;;;;;;5033118;28;20041;-73
2022/08/23 01:28:44;;;;;;;13.05;5.38;;;19.20;99.90;;;;;;5034639;28;20512;-73
2022/08/23 01:31:11;;;;;;;9.35;5.60;;;19.10;99.90;;;;;;5034461;28;20037;-73
2022/08/23 01:33:39;;;;;;;14.85;6.20;;;19.10;99.90;;;;;;5034400;28;20426;-73
2022/08/23 01:36:08;;;;;;;11.75;5.78;;;19.50;99.90;;;;;;5034046;28;20093;-73
2022/08/23 01:38:34;;;;;;;12.93;6.22;;;19.10;99.90;;;;;;5033748;28;20037;-73
2022/08/23 01:40:59;;;;;;;12.52;6.40;;;19.10;99.90;;;;;;5034125;28;20536;-73
2022/08/23 01:43:25;;;;;;;11.05;6.20;;;19.10;99.90;;;;;;5032987;28;20057;-73
2022/08/23 01:45:51;;;;;;;13.20;6.90;;;19.10;99.90;;;;;;5033929;28;20056;-73
2022/08/23 01:48:19;;;;;;;11.10;6.40;;;19.10;99.90;;;;;;5032636;28;20099;-73
2022/08/23 01:50:45;;;;;;;16.95;7.13;;;19.00;99.90;;;;;;5032523;28;20478;-73
2022/08/23 01:53:11;;;;;;;14.35;7.18;;;19.00;99.90;;;;;;5016187;28;20041;-73
2022/08/23 01:55:39;;;;;;;13.02;7.25;;;18.90;99.90;;;;;;5033686;28;20497;-73
2022/08/23 01:58:06;;;;;;;14.82;8.10;;;19.20;99.90;;;;;;5034375;28;20076;-73
2022/08/23 02:00:35;;;;;;;14.82;7.97;;;19.00;99.90;;;;;;5016019;28;20045;-73
2022/08/23 02:03:01;;;;;;;14.15;7.90;;;18.80;99.90;;;;;;5034113;28;20107;-73
2022/08/23 02:05:27;;;;;;;16.88;8.40;;;18.80;99.90;;;;;;5033697;28;20418;-73
2022/08/23 02:07:53;;;;;;;13.05;7.97;;;18.80;99.90;;;;;;5034222;28;20117;-73
2022/08/23 02:10:19;;;;;;;14.10;8.38;;;19.10;99.90;;;;;;5033539;28;20504;-73
2022/08/23 02:12:45;;;;;;;12.95;8.52;;;18.90;99.90;;;;;;5031808;28;20095;-74
2022/08/23 02:15:12;;;;;;;12.40;8.27;;;18.80;99.90;;;;;;5032465;28;20478;-73
2022/08/23 02:17:38;;;;;;;15.95;8.27;;;18.60;99.90;;;;;;5033581;28;20045;-73
2022/08/23 02:20:05;;;;;;;12.65;8.40;;;18.70;99.90;;;;;;5033847;28;20421;-73
2022/08/23 02:22:31;;;;;;;13.82;9.00;;;18.70;99.90;;;;;;5033510;28;20401;-73
2022/08/23 02:24:57;;;;;;;11.98;8.63;;;18.90;99.90;;;;;;5030455;28;20065;-73
2022/08/23 02:27:22;;;;;;;15.80;8.65;;;18.60;99.90;;;;;;5031618;28;20033;-73
2022/08/23 02:29:49;;;;;;;14.05;8.43;;;18.60;99.90;;;;;;5032478;28;20049;-73
2022/08/23 02:32:16;;;;;;;16.30;8.85;;;18.70;99.90;;;;;;5031760;28;20056;-73
2022/08/23 02:34:43;;;;;;;14.23;7.85;;;18.60;99.90;;;;;;5032431;28;20417;-73
2022/08/23 02:37:11;;;;;;;14.02;8.32;;;18.60;99.90;;;;;;5032823;28;20043;-73
2022/08/23 02:39:37;;;;;;;13.68;8.63;;;18.60;99.90;;;;;;5033203;28;20045;-74
2022/08/23 02:42:03;;;;;;;14.57;9.45;;;18.60;99.90;;;;;;5032722;28;20049;-73
2022/08/23 02:44:33;;;;;;;15.80;9.90;;;18.60;99.90;;;;;;5031874;28;20393;-73
2022/08/23 02:46:59;;;;;;;14.65;9.80;;;18.60;99.90;;;;;;5031556;28;20092;-74
2022/08/23 02:49:25;;;;;;;16.30;9.68;;;18.50;99.90;;;;;;5032992;28;20109;-73
2022/08/23 02:51:50;;;;;;;16.90;9.60;;;18.50;99.90;;;;;;5030684;28;20528;-73
2022/08/23 02:54:16;;;;;;;14.80;9.65;;;18.50;99.90;;;;;;5031284;28;20040;-73
2022/08/23 02:56:42;;;;;;;16.63;10.00;;;18.50;99.90;;;;;;5030484;28;20121;-73
2022/08/23 02:59:08;;;;;;;18.00;10.43;;;18.50;99.90;;;;;;5031916;28;20365;-73
2022/08/23 03:01:37;;;;;;;15.57;10.35;;;18.50;99.90;;;;;;5031577;28;20382;-73
2022/08/23 03:04:06;;;;;;;15.05;9.27;;;18.80;99.90;;;;;;5032686;28;20395;-73
2022/08/23 03:06:31;;;;;;;21.58;9.57;;;18.50;99.90;;;;;;5032159;28;20068;-73
2022/08/23 03:08:57;;;;;;;13.45;10.27;;;18.70;99.90;;;;;;5032311;28;20046;-74
2022/08/23 03:11:24;;;;;;;16.50;10.52;;;18.40;99.90;;;;;;5031323;28;20126;-73
2022/08/23 03:13:51;;;;;;;14.27;9.68;;;18.40;99.90;;;;;;5032490;28;20055;-74
2022/08/23 03:16:17;;;;;;;14.98;10.23;;;18.50;99.90;;;;;;5032530;28;20037;-73
2022/08/23 03:18:44;;;;;;;16.83;9.40;;;18.40;99.90;;;;;;5032501;28;20037;-73
2022/08/23 03:21:10;;;;;;;17.95;10.15;;;18.40;99.90;;;;;;5032355;28;20045;-73
2022/08/23 03:23:37;;;;;;;14.02;9.68;;;18.40;99.90;;;;;;5032443;28;20437;-73
2022/08/23 03:26:05;;;;;;;16.17;9.65;;;18.40;99.90;;;;;;5030870;28;20040;-73
2022/08/23 03:28:33;;;;;;;15.48;10.07;;;18.30;99.90;;;;;;5032668;28;20455;-73
2022/08/23 03:30:59;;;;;;;18.52;10.65;;;18.30;99.90;;;;;;5030662;28;20478;-74
2022/08/23 03:33:25;;;;;;;18.30;10.20;;;18.70;99.90;;;;;;5031073;28;20103;-73
2022/08/23 03:35:51;;;;;;;16.85;10.43;;;18.50;99.90;;;;;;5032011;28;20049;-73
2022/08/23 03:38:18;;;;;;;13.98;10.05;;;18.40;99.90;;;;;;5032441;28;20042;-73
2022/08/23 03:40:44;;;;;;;16.60;11.00;;;18.30;99.90;;;;;;5032091;28;20539;-73
2022/08/23 03:43:10;;;;;;;14.55;10.10;;;18.30;99.90;;;;;;5030622;28;20120;-73
2022/08/23 03:45:36;;;;;;;14.38;9.93;;;18.20;99.90;;;;;;5032470;28;20041;-73
2022/08/23 03:48:03;;;;;;;17.27;11.20;;;18.20;99.90;;;;;;5025420;28;20100;-74
2022/08/23 03:50:28;;;;;;;15.95;11.00;;;18.20;99.90;;;;;;5024613;28;20054;-73
2022/08/23 03:52:54;;;;;;;14.95;10.65;;;18.20;99.90;;;;;;5032505;28;20449;-73
2022/08/23 03:55:20;;;;;;;18.60;12.15;;;18.20;99.90;;;;;;5030258;28;20045;-73
2022/08/23 03:57:45;;;;;;;19.85;12.07;;;18.10;99.90;;;;;;5032328;28;20041;-73
2022/08/23 04:00:13;;;;;;;15.10;11.43;;;18.10;99.90;;;;;;5030766;28;20045;-73
2022/08/23 04:02:41;;;;;;;17.13;11.65;;;18.10;99.90;;;;;;5049855;28;20053;-73
2022/08/23 04:05:09;;;;;;;15.02;10.48;;;18.00;99.90;;;;;;5035193;28;20489;-73
2022/08/23 04:07:37;;;;;;;14.60;11.40;;;18.00;99.90;;;;;;5035306;28;20057;-72
2022/08/23 04:10:03;;;;;;;16.52;11.88;;;18.00;99.90;;;;;;5034742;28;20087;-72
2022/08/23 04:12:29;;;;;;;14.05;10.65;;;18.00;99.90;;;;;;5035878;28;20084;-72
2022/08/23 04:14:54;;;;;;;18.52;11.45;;;18.00;99.90;;;;;;5035705;28;20065;-73
2022/08/23 04:17:20;;;;;;;17.75;12.27;;;18.50;99.90;;;;;;5035420;28;20051;-73
2022/08/23 04:19:46;;;;;;;17.38;11.35;;;18.00;99.90;;;;;;5035759;28;20072;-73
2022/08/23 04:22:14;;;;;;;16.67;11.15;;;18.00;99.90;;;;;;5034246;28;20481;-73
2022/08/23 04:24:41;;;;;;;17.63;12.10;;;18.00;99.90;;;;;;5033917;28;20052;-73
2022/08/23 04:27:07;;;;;;;16.15;12.05;;;18.00;99.90;;;;;;5035338;28;20045;-73
2022/08/23 04:29:33;;;;;;;20.17;12.60;;;18.00;99.90;;;;;;5035566;28;20054;-74
2022/08/23 04:31:58;;;;;;;18.63;12.32;;;17.90;99.90;;;;;;5033886;28;20051;-73
2022/08/23 04:34:26;;;;;;;16.50;11.82;;;17.90;99.90;;;;;;5035635;28;20453;-73
2022/08/23 04:36:52;;;;;;;16.05;12.13;;;18.00;99.90;;;;;;5035240;28;20049;-73
2022/08/23 04:39:18;;;;;;;15.30;12.02;;;17.90;99.90;;;;;;5035333;28;20433;-73
2022/08/23 04:44:27;;;;;;;17.92;12.90;;;17.90;99.90;;;;;;5027556;28;20124;-73
2022/08/23 04:46:54;;;;;;;16.67;12.70;;;17.80;99.90;;;;;;5034791;28;20459;-73
2022/08/23 04:49:22;;;;;;;19.85;13.52;;;17.80;99.90;;;;;;5032427;28;20084;-73
2022/08/23 04:51:48;;;;;;;19.45;12.88;;;17.80;99.90;;;;;;5031755;28;20080;-73
2022/08/23 04:54:14;;;;;;;21.17;13.40;;;17.90;99.90;;;;;;5032855;28;20056;-73
2022/08/23 04:56:40;;;;;;;19.50;12.80;;;17.80;99.90;;;;;;5035115;28;20045;-73
2022/08/23 04:59:06;;;;;;;18.48;12.98;;;17.80;99.90;;;;;;5035386;28;20038;-73
2022/08/23 05:01:33;;;;;;;19.60;14.05;;;17.80;99.90;;;;;;5033625;28;20046;-73
2022/08/23 05:03:59;;;;;;;17.25;12.82;;;17.90;99.90;;;;;;5016414;28;20067;-73
2022/08/23 05:06:26;;;;;;;16.92;13.30;;;17.90;99.90;;;;;;5034533;28;20060;-73
2022/08/23 05:08:52;;;;;;;18.30;12.45;;;17.80;99.90;;;;;;5034928;28;20547;-73
2022/08/23 05:11:19;;;;;;;17.77;13.90;;;17.90;99.90;;;;;;5034567;28;20049;-73
2022/08/23 05:13:45;;;;;;;17.58;12.90;;;17.80;99.90;;;;;;5034197;28;20049;-73
2022/08/23 05:16:10;;;;;;;17.77;12.80;;;17.90;99.90;;;;;;5033206;28;20080;-73
2022/08/23 05:18:36;;;;;;;19.20;13.18;;;17.90;99.90;;;;;;5034498;28;20041;-73
2022/08/23 05:21:01;;;;;;;16.45;13.23;;;17.90;99.90;;;;;;5031519;28;20461;-72
2022/08/23 05:23:27;;;;;;;16.08;12.85;;;17.90;99.90;;;;;;5034460;28;20053;-72
2022/08/23 05:25:54;;;;;;;15.98;12.77;;;17.90;99.90;;;;;;5033859;28;20022;-73
2022/08/23 05:28:24;;;;;;;17.63;13.27;;;18.40;99.90;;;;;;5033865;28;20473;-73
2022/08/23 05:31:09;;;;;;;21.85;12.95;;;18.00;99.90;;;;;;5033777;28;20045;-73
2022/08/23 05:33:35;;;;;;;17.65;12.93;;;18.00;99.90;;;;;;5032871;28;20033;-73
2022/08/23 05:36:03;;;;;;;18.02;13.32;;;18.00;99.90;;;;;;5032204;28;20052;-73
2022/08/23 05:38:30;;;;;;;16.13;12.95;;;18.00;99.90;;;;;;5033433;28;20045;-73
2022/08/23 05:40:57;;;;;;;19.80;13.23;;;18.00;99.90;;;;;;5030698;28;20042;-73
2022/08/23 05:43:24;;;;;;;19.40;13.77;;;18.10;99.90;;;;;;5031528;28;20100;-74
2022/08/23 05:46:21;;;;;;;18.95;13.15;;;18.10;99.90;;;;;;5034333;28;20045;-74
2022/08/23 05:48:49;;;;;;;16.83;13.38;;;18.10;99.90;;;;;;5024945;28;20123;-76
2022/08/23 05:51:18;;;;;;;16.27;13.18;;;18.20;99.90;;;;;;5033954;28;20057;-74
2022/08/23 05:53:45;;;;;;;20.58;15.10;;;18.20;99.90;;;;;;5032612;28;20497;-74
2022/08/23 05:56:32;;;;;;;18.27;14.45;;;18.20;99.90;;;;;;5023488;28;20473;-74
2022/08/23 05:59:00;;;;;;;16.92;14.07;;;18.30;99.90;;;;;;5023097;28;20045;-74
2022/08/23 06:01:28;;;;;;;24.30;14.95;;;18.30;99.90;;;;;;5031775;28;20099;-74
2022/08/23 06:03:53;;;;;;;16.42;14.50;;;18.40;99.90;;;;;;5016176;28;20122;-74
2022/08/23 06:06:20;;;;;;;22.58;14.30;;;18.40;99.90;;;;;;5013973;28;20044;-74
2022/08/23 06:08:47;;;;;;;17.75;13.73;;;18.50;99.90;;;;;;5013028;28;20052;-76
2022/08/23 06:11:19;;;;;;;17.27;12.13;;;18.50;99.90;;;;;;5013842;28;20448;-75
2022/08/23 06:13:49;;;;;;;17.55;12.50;;;18.70;99.90;;;;;;5023810;28;20045;-75
2022/08/23 06:16:17;;;;;;;14.80;11.07;;;18.60;99.90;;;;;;5029227;28;20053;-76
2022/08/23 06:18:44;;;;;;;16.05;12.02;;;18.80;99.90;;;;;;5033673;28;20086;-75
2022/08/23 06:21:11;;;;;;;17.75;11.70;;;18.70;99.90;;;;;;5033358;28;20371;-75
2022/08/23 06:23:38;;;;;;;16.88;11.50;;;18.70;99.90;;;;;;5033379;28;20549;-76
2022/08/23 06:26:19;;;;;;;16.00;11.93;;;18.70;99.90;;;;;;5032461;28;20045;-75
2022/08/23 06:28:47;;;;;;;17.98;11.95;;;18.80;99.90;;;;;;5032157;28;20099;-73
2022/08/23 06:31:12;;;;;;;15.00;12.80;;;18.80;99.90;;;;;;5032166;28;20084;-73
2022/08/23 06:33:41;;;;;;;18.92;12.50;;;18.80;99.90;;;;;;5032241;28;20049;-72
2022/08/23 06:36:09;;;;;;;13.93;11.63;;;18.80;99.90;;;;;;5032955;28;20067;-73
2022/08/23 06:38:35;;;;;;;16.00;11.80;;;19.30;99.90;;;;;;5033165;28;20041;-74
2022/08/23 06:41:09;;;;;;;19.88;11.70;;;18.90;99.90;;;;;;5038707;28;20071;-76
2022/08/23 06:43:36;;;;;;;16.17;11.32;;;19.00;99.90;;;;;;5051619;28;20053;-73
2022/08/23 06:46:10;;;;;;;15.95;11.00;;;19.10;99.90;;;;;;5051909;28;20057;-73
2022/08/23 06:48:37;;;;;;;17.25;10.98;;;19.10;99.90;;;;;;5041183;28;20136;-74
2022/08/23 06:51:07;;;;;;;13.05;11.05;;;19.20;99.90;;;;;;5032343;28;20096;-74
2022/08/23 06:53:33;;;;;;;12.70;9.90;;;19.20;99.90;;;;;;5031769;28;20060;-74
2022/08/23 06:55:59;;;;;;;14.18;9.88;;;19.30;99.90;;;;;;5031897;28;20038;-74
2022/08/23 06:58:25;;;;;;;13.80;9.20;;;19.40;99.90;;;;;;5032486;28;20088;-74
2022/08/23 07:00:50;;;;;;;11.10;8.68;;;19.50;99.90;;;;;;5031426;28;20045;-74
2022/08/23 07:03:16;;;;;;;11.85;8.57;;;19.60;99.90;;;;;;5032028;28;20045;-74
2022/08/23 07:05:42;;;;;;;11.98;7.32;;;19.70;99.90;;;;;;5037914;28;20041;-74
2022/08/23 07:08:07;;;;;;;9.75;6.70;;;19.80;99.90;;;;;;5035063;28;20041;-74
2022/08/23 07:10:33;;;;;;;11.32;8.10;;;20.00;99.90;;;;;;5031193;28;20049;-73
2022/08/23 07:12:59;;;;;;;9.80;7.50;;;20.10;99.90;;;;;;5032395;28;20513;-73
2022/08/23 07:15:24;;;;;;;12.02;7.47;;;20.20;99.90;;;;;;5014459;28;20053;-75
2022/08/23 07:17:50;;;;;;;11.70;8.35;;;20.30;99.90;;;;;;5031163;28;20045;-75
2022/08/23 07:20:16;;;;;;;16.98;8.32;;;20.50;99.90;;;;;;5032699;28;20418;-75
2022/08/23 07:22:43;;;;;;;10.05;7.75;;;20.60;99.90;;;;;;5039539;28;20052;-75
2022/08/23 07:25:09;;;;;;;13.52;8.07;;;20.70;99.90;;;;;;5022828;28;20140;-75
2022/08/23 07:27:34;;;;;;;12.90;8.20;;;20.80;99.90;;;;;;5012763;28;20116;-74
2022/08/23 07:30:01;;;;;;;16.23;7.63;;;21.00;99.90;;;;;;5018379;28;20053;-75
2022/08/23 07:32:27;;;;;;;9.38;6.10;;;21.10;99.90;;;;;;5032044;28;20041;-75
2022/08/23 07:34:52;;;;;;;9.15;6.18;;;21.20;99.90;;;;;;5031561;28;20056;-75
2022/08/23 07:37:18;;;;;;;9.40;6.45;;;21.30;99.90;;;;;;5031461;28;20135;-75
2022/08/23 07:39:44;;;;;;;12.45;5.85;;;21.40;99.90;;;;;;5040541;28;20040;-75
2022/08/23 07:42:10;;;;;;;10.57;6.45;;;21.40;99.90;;;;;;5049722;28;20041;-74
2022/08/23 07:44:35;;;;;;;12.15;6.20;;;21.50;99.90;;;;;;5046646;28;20045;-75
2022/08/23 07:47:01;;;;;;;8.85;6.03;;;21.50;99.90;;;;;;5033684;28;20095;-75
2022/08/23 07:49:27;;;;;;;10.13;5.90;;;21.60;99.90;;;;;;5051934;28;20068;-75
2022/08/23 07:51:52;;;;;;;9.52;5.15;;;21.60;99.90;;;;;;5029586;28;20506;-74
2022/08/23 07:54:21;;;;;;;9.98;5.47;;;21.60;99.90;;;;;;5029323;28;20400;-75
2022/08/23 07:56:46;;;;;;;7.55;5.45;;;21.80;99.90;;;;;;5026372;28;20133;-75
2022/08/23 07:59:13;;;;;;;10.90;5.35;;;21.90;99.90;;;;;;5029956;28;20112;-75
2022/08/23 08:01:42;;;;;;;9.43;5.10;;;21.90;99.90;;;;;;5031381;28;20489;-75
2022/08/23 08:04:07;;;;;;;9.02;5.00;;;22.00;99.90;;;;;;5031696;28;20046;-74
2022/08/23 08:06:44;;;;;;;8.70;5.03;;;22.00;99.90;;;;;;5031665;28;20072;-74
2022/08/23 08:09:11;;;;;;;8.50;5.22;;;22.10;99.90;;;;;;5025058;28;20042;-74
2022/08/23 08:11:39;;;;;;;11.05;4.68;;;22.40;99.90;;;;;;5027461;28;20401;-75
2022/08/23 08:14:07;;;;;;;9.82;4.80;;;22.30;99.90;;;;;;5044449;28;20041;-75
2022/08/23 08:16:43;;;;;;;8.40;4.55;;;22.50;99.90;;;;;;5037296;28;20052;-74
2022/08/23 08:19:11;;;;;;;8.82;4.75;;;22.50;99.90;;;;;;5031662;28;20394;-75
2022/08/23 08:21:38;;;;;;;12.02;5.25;;;22.70;99.90;;;;;;5025318;28;20033;-74
2022/08/23 08:24:06;;;;;;;7.13;4.30;;;22.80;99.90;;;;;;5033762;28;20096;-75
2022/08/23 08:26:32;;;;;;;9.82;4.53;;;22.90;99.90;;;;;;5046159;28;20037;-75
2022/08/23 08:28:57;;;;;;;8.27;4.65;;;23.10;99.90;;;;;;5034211;28;20187;-75
2022/08/23 08:31:24;;;;;;;8.45;4.43;;;23.30;99.90;;;;;;5032333;28;20385;-78
2022/08/23 08:33:49;;;;;;;7.43;4.57;;;23.50;99.90;;;;;;5031908;28;20037;-76
2022/08/23 08:36:34;;;;;;;8.68;5.13;;;23.50;99.90;;;;;;5031248;28;20064;-78
2022/08/23 08:39:03;;;;;;;11.35;4.53;;;23.70;99.90;;;;;;5031229;28;20129;-75
2022/08/23 08:41:44;;;;;;;9.75;4.90;;;24.00;99.90;;;;;;5031437;28;20405;-77
2022/08/23 08:44:48;;;;;;;8.05;4.20;;;24.00;99.90;;;;;;5031249;28;20049;-77
2022/08/23 08:47:34;;;;;;;10.25;4.35;;;24.10;99.90;;;;;;5026323;28;20503;-76
2022/08/23 08:50:02;;;;;;;11.15;4.60;;;24.20;99.90;;;;;;5033500;28;20472;-78
2022/08/23 08:52:33;;;;;;;8.00;3.92;;;24.40;99.90;;;;;;5034482;28;20402;-77
2022/08/23 08:55:07;;;;;;;9.18;4.20;;;24.50;99.90;;;;;;5046160;28;20128;-76
2022/08/23 08:57:39;;;;;;;10.77;3.88;;;24.70;99.90;;;;;;5039864;28;20513;-76
2022/08/23 09:00:09;;;;;;;8.70;3.88;;;25.00;99.90;;;;;;5034989;28;20048;-76
2022/08/23 09:02:36;;;;;;;7.50;4.00;;;25.10;99.90;;;;;;5034825;28;20045;-76
2022/08/23 09:05:08;;;;;;;7.65;3.30;;;25.30;99.90;;;;;;5034290;28;20042;-76
2022/08/23 09:07:55;;;;;;;5.47;3.15;;;25.50;99.90;;;;;;5034253;28;20049;-76
2022/08/23 09:10:39;;;;;;;8.32;3.47;;;25.80;99.90;;;;;;5014780;28;20049;-76
2022/08/23 09:13:17;;;;;;;7.07;3.60;;;26.00;99.90;;;;;;5035170;28;20053;-76
2022/08/23 09:16:12;;;;;;;6.28;3.30;;;26.20;99.90;;;;;;5034256;28;20125;-76
2022/08/23 09:18:38;;;;;;;6.50;2.95;;;26.40;99.90;;;;;;5034897;28;20053;-76
2022/08/23 09:21:06;;;;;;;7.97;3.03;;;26.50;99.90;;;;;;5033759;28;20037;-76
2022/08/23 09:23:40;;;;;;;9.18;3.47;;;26.70;99.90;;;;;;5035217;28;20042;-76
2022/08/23 09:26:23;;;;;;;6.47;2.72;;;27.00;99.90;;;;;;5035330;28;20080;-76
2022/08/23 09:28:58;;;;;;;5.32;2.75;;;27.30;99.90;;;;;;5035365;28;20056;-76
2022/08/23 09:31:43;;;;;;;7.43;3.05;;;27.50;99.90;;;;;;5032054;28;20052;-76
2022/08/23 09:34:16;;;;;;;6.00;3.25;;;27.70;99.90;;;;;;5033656;28;20042;-76
2022/08/23 09:36:42;;;;;;;7.82;3.03;;;28.00;99.50;;;;;;5033266;28;20124;-76
2022/08/23 09:39:30;;;;;;;6.43;3.25;;;28.20;98.90;;;;;;5035041;28;20552;-76
2022/08/23 09:41:56;;;;;;;6.10;3.00;;;28.40;98.90;;;;;;5023626;28;20154;-76
2022/08/23 09:44:38;;;;;;;6.30;3.25;;;28.70;98.90;;;;;;5015426;28;20477;-76
2022/08/23 09:47:15;;;;;;;8.00;2.83;;;28.80;98.80;;;;;;5015070;28;20037;-76
2022/08/23 09:49:43;;;;;;;8.70;2.88;;;28.70;99.00;;;;;;5015136;28;20387;-76
2022/08/23 09:52:17;;;;;;;7.25;2.90;;;28.90;99.30;;;;;;5014671;28;20067;-76
2022/08/23 09:54:43;;;;;;;6.65;2.90;;;29.10;98.40;;;;;;5011595;28;20053;-75
2022/08/23 09:57:12;;;;;;;8.27;2.90;;;29.30;97.90;;;;;;5014481;28;20581;-74
2022/08/23 09:59:44;;;;;;;5.70;2.60;;;29.50;96.90;;;;;;5014800;28;20050;-75
2022/08/23 10:02:34;;;;;;;6.75;2.83;;;29.60;96.60;;;;;;5014403;28;20142;-75
2022/08/23 10:05:14;;;;;;;6.18;2.88;;;29.70;96.40;;;;;;5013093;28;20050;-75
2022/08/23 10:07:44;;;;;;;6.35;3.10;;;29.90;96.00;;;;;;5014897;28;20422;-75
2022/08/23 10:10:33;;;;;;;5.78;2.63;;;29.90;95.90;;;;;;5032134;28;20033;-75
2022/08/23 10:13:00;;;;;;;6.93;2.58;;;29.80;96.50;;;;;;5031826;28;20115;-75
2022/08/23 10:15:48;;;;;;;6.20;2.60;;;29.90;96.10;;;;;;5033465;28;20037;-75
2022/08/23 10:18:23;;;;;;;6.43;2.50;;;30.00;95.90;;;;;;5033183;28;20103;-75
2022/08/23 10:20:58;;;;;;;6.85;2.97;;;30.30;95.50;;;;;;5031671;28;20053;-75
2022/08/23 10:23:47;;;;;;;8.20;3.08;;;30.70;94.70;;;;;;5032945;28;20125;-74
2022/08/23 10:26:26;;;;;;;5.47;2.70;;;31.00;94.30;;;;;;5029231;28;20054;-75
2022/08/23 10:32:09;;;;;;;;;;;31.70;93.10;;;;;;5014145;28;20088;-75
2022/08/23 10:34:52;;;;;;;6.70;2.53;;;32.10;92.40;;;;;;4996534;28;20325;-79
2022/08/23 10:37:36;;;;;;;5.30;2.50;;;32.40;91.70;;;;;;5014290;28;20054;-76
2022/08/23 10:40:18;;;;;;;7.18;2.50;;;32.70;91.10;;;;;;5014069;28;20089;-76
2022/08/23 10:43:10;;;;;;;4.88;2.20;;;32.90;90.90;;;;;;5031165;28;20037;-76
2022/08/23 10:45:38;;;;;;;6.95;2.67;;;33.00;90.90;;;;;;5030643;28;20068;-77
2022/08/23 10:48:27;;;;;;;7.80;2.60;;;33.10;90.20;;;;;;5032900;28;20096;-77
2022/08/23 10:51:27;;;;;;;7.25;2.53;;;33.00;88.10;;;;;;5032069;28;20086;-76
2022/08/23 10:54:05;;;;;;;9.35;2.67;;;32.80;88.90;;;;;;5033380;28;20045;-77
2022/08/23 10:56:31;;;;;;;6.30;2.63;;;32.70;87.70;;;;;;5033597;28;20045;-77
2022/08/23 10:59:19;;;;;;;6.75;2.55;;;32.50;88.70;;;;;;5032202;28;20039;-77
2022/08/23 11:02:03;;;;;;;6.72;2.40;;;32.50;89.20;;;;;;5033281;28;20037;-77
2022/08/23 11:04:47;;;;;;;7.32;2.60;;;32.50;88.90;;;;;;5031936;28;20052;-77
2022/08/23 11:07:18;;;;;;;9.70;2.83;;;32.70;89.00;;;;;;5033650;28;20469;-77
2022/08/23 11:10:05;;;;;;;7.70;2.55;;;32.90;88.90;;;;;;5034004;28;20051;-77
2022/08/23 11:12:35;;;;;;;6.10;2.53;;;33.10;87.70;;;;;;5031599;28;20056;-77
2022/08/23 11:15:18;;;;;;;7.60;2.40;;;33.20;87.50;;;;;;5033296;28;20478;-77
2022/08/23 11:17:49;;;;;;;6.55;2.70;;;33.50;87.80;;;;;;5032575;28;20145;-77
2022/08/23 11:20:50;;;;;;;7.22;2.50;;;34.00;87.20;;;;;;5032920;28;20045;-78
2022/08/23 11:23:42;;;;;;;7.00;2.40;;;34.60;86.90;;;;;;5033241;28;20041;-78
2022/08/23 11:26:34;;;;;;;7.25;2.60;;;35.60;84.70;;;;;;5013353;28;20125;-78
2022/08/23 11:29:06;;;;;;;5.68;2.47;;;35.80;83.10;;;;;;5012190;28;20382;-78
2022/08/23 11:31:41;;;;;;;8.10;2.33;;;36.70;80.90;;;;;;5013106;28;20044;-78
2022/08/23 11:34:22;;;;;;;7.82;2.35;;;37.50;80.10;;;;;;5012018;28;20399;-77
2022/08/23 11:37:19;;;;;;;5.25;2.20;;;37.80;78.20;;;;;;5010726;28;20062;-77
2022/08/23 11:39:56;;;;;;;5.30;2.47;;;38.40;76.60;;;;;;5013749;28;20042;-77
2022/08/23 11:42:24;;;;;;;7.57;2.40;;;38.90;75.80;;;;;;5011518;28;20041;-77
2022/08/23 11:44:50;;;;;;;6.20;2.40;;;39.20;74.00;;;;;;5013432;28;20100;-78
2022/08/23 11:47:43;;;;;;;8.30;2.17;;;39.80;73.30;;;;;;5012445;28;20117;-78
2022/08/23 11:50:20;;;;;;;5.82;2.30;;;40.10;71.40;;;;;;5012537;28;20088;-77
2022/08/23 11:52:55;;;;;;;6.47;2.40;;;40.60;69.00;;;;;;5013903;28;20078;-77
2022/08/23 11:55:45;;;;;;;6.70;2.30;;;40.30;69.30;;;;;;5013720;28;20042;-77
2022/08/23 11:58:29;;;;;;;5.82;1.90;;;40.30;68.40;;;;;;5013339;28;20456;-77
2022/08/23 12:01:14;;;;;;;7.28;2.30;;;40.50;68.70;;;;;;5013513;28;20048;-78
2022/08/23 12:04:11;;;;;;;4.63;1.92;;;40.70;68.30;;;;;;5012328;28;20147;-77
2022/08/23 12:06:56;;;;;;;8.77;2.03;;;41.10;67.30;;;;;;5012121;28;20410;-77
2022/08/23 12:09:21;;;;;;;6.53;2.03;;;41.80;66.70;;;;;;5013391;28;20538;-77
2022/08/23 12:11:56;;;;;;;6.53;2.03;;;42.40;66.00;;;;;;5028152;28;20146;-77
2022/08/23 12:14:31;;;;;;;4.85;2.20;;;42.70;64.70;;;;;;5013247;28;20046;-78
2022/08/23 12:17:15;;;;;;;4.72;2.20;;;42.60;64.30;;;;;;5021895;28;20440;-77
2022/08/23 12:19:46;;;;;;;5.25;2.10;;;42.20;62.70;;;;;;5032282;28;20049;-77
2022/08/23 12:22:16;;;;;;;7.32;2.33;;;41.30;62.80;;;;;;5033008;28;20060;-77
2022/08/23 12:24:49;;;;;;;7.82;2.10;;;40.30;63.00;;;;;;5036569;28;20052;-77
2022/08/23 12:27:30;;;;;;;7.10;2.17;;;39.30;64.10;;;;;;5036992;28;20045;-77
2022/08/23 12:30:09;;;;;;;4.78;2.30;;;38.50;65.00;;;;;;5034372;28;20417;-77
2022/08/23 12:32:51;;;;;;;8.30;2.53;;;37.80;65.90;;;;;;5035427;28;20455;-77
2022/08/23 12:35:45;;;;;;;7.25;2.47;;;36.90;65.40;;;;;;5036657;28;20491;-77
2022/08/23 12:38:27;;;;;;;7.00;2.35;;;36.30;65.40;;;;;;5036931;28;20059;-77
2022/08/23 12:40:53;;;;;;;9.13;2.28;;;35.20;66.20;;;;;;5035010;28;20049;-77
2022/08/23 12:43:27;;;;;;;6.45;2.35;;;34.50;67.40;;;;;;5036540;28;20042;-77
2022/08/23 12:45:56;;;;;;;6.65;2.50;;;34.10;68.00;;;;;;5036776;28;20045;-77
2022/08/23 12:48:25;;;;;;;6.25;2.40;;;33.80;68.50;;;;;;5029926;28;20073;-78
2022/08/23 12:51:06;;;;;;;5.18;2.28;;;33.50;69.60;;;;;;5016528;28;20057;-77
2022/08/23 12:53:41;;;;;;;7.32;2.30;;;33.00;69.80;;;;;;5035409;28;20478;-77
2022/08/23 12:56:16;;;;;;;6.72;2.60;;;32.80;69.90;;;;;;5034868;28;20119;-79
2022/08/23 12:58:45;;;;;;;;;;;32.70;70.70;;;;;;5030077;28;20034;-77
2022/08/23 13:01:37;;;;;;;6.13;2.15;;;32.60;70.10;;;;;;5023543;28;19932;-77
2022/08/23 13:04:10;;;;;;;4.18;2.03;;;32.40;70.10;;;;;;5033343;28;20370;-77
2022/08/23 13:06:50;;;;;;;8.73;2.40;;;32.40;70.20;;;;;;5031368;28;20068;-77
2022/08/23 13:09:28;;;;;;;6.55;2.50;;;32.40;70.20;;;;;;5036251;28;20045;-77